createdAt,value
2022-10-13T00:01:12.948Z,99875.38
2022-10-13T00:03:40.915Z,99876.88
2022-10-13T00:06:08.881Z,99877.56
2022-10-13T00:08:36.685Z,99883.66
2022-10-13T00:11:10.694Z,99875.41
2022-10-13T00:13:37.544Z,99869.72
2022-10-13T00:16:04.440Z,99869.31
2022-10-13T00:18:30.923Z,99874.81
2022-10-13T00:20:57.498Z,99869.09
2022-10-13T00:23:24.655Z,99876.22
2022-10-13T00:25:51.661Z,99875.38
2022-10-13T00:28:19.467Z,99871.06
2022-10-13T00:30:47.065Z,99869.69
2022-10-13T00:33:14.135Z,99874.63
2022-10-13T00:35:45.686Z,99872.25
2022-10-13T00:38:12.544Z,99876.69
2022-10-13T00:40:49.185Z,99877.25
2022-10-13T00:43:20.096Z,99870.09
2022-10-13T00:45:49.938Z,99882.22
2022-10-13T00:48:25.994Z,99882.69
2022-10-13T00:50:53.066Z,99881.13
2022-10-13T00:53:22.240Z,99881.81
2022-10-13T00:55:50.686Z,99878.88
2022-10-13T00:58:19.519Z,99870.56
2022-10-13T01:00:47.771Z,99863.88
2022-10-13T01:03:14.854Z,99877.16
2022-10-13T01:05:41.948Z,99865.16
2022-10-13T01:08:09.573Z,99864.81
2022-10-13T01:10:42.181Z,99866.09
2022-10-13T01:13:31.894Z,99856.75
2022-10-13T01:16:06.737Z,99852.56
2022-10-13T01:18:39.036Z,99863.00
2022-10-13T01:21:25.839Z,99855.53
2022-10-13T01:24:20.258Z,99864.28
2022-10-13T01:27:22.649Z,99860.84
2022-10-13T01:30:09.590Z,99851.50
2022-10-13T01:32:42.105Z,99854.03
2022-10-13T01:35:12.194Z,99847.25
2022-10-13T01:37:47.295Z,99841.38
2022-10-13T01:40:26.181Z,99840.88
2022-10-13T01:43:02.149Z,99844.13
2022-10-13T01:45:38.513Z,99839.47
2022-10-13T01:48:06.246Z,99830.13
2022-10-13T01:50:33.729Z,99829.56
2022-10-13T01:53:02.496Z,99808.50
2022-10-13T01:55:29.779Z,99814.78
2022-10-13T01:57:56.331Z,99809.66
2022-10-13T02:00:23.104Z,99825.91
2022-10-13T02:03:26.629Z,99826.78
2022-10-13T02:05:59.222Z,99828.16
2022-10-13T02:08:31.532Z,99815.56
2022-10-13T02:11:14.475Z,99805.94
2022-10-13T02:13:45.377Z,99797.06
2022-10-13T02:16:13.350Z,99801.78
2022-10-13T02:18:40.549Z,99802.56
2022-10-13T02:21:07.305Z,99802.56
2022-10-13T02:23:33.842Z,99788.22
2022-10-13T02:26:00.590Z,99776.19
2022-10-13T02:28:27.879Z,99783.66
2022-10-13T02:30:56.979Z,99777.75
2022-10-13T02:33:23.460Z,99773.59
2022-10-13T02:35:50.034Z,99780.88
2022-10-13T02:38:16.479Z,99778.91
2022-10-13T02:40:42.960Z,99785.94
2022-10-13T02:43:09.447Z,99786.59
2022-10-13T02:45:36.006Z,99790.94
2022-10-13T02:48:02.927Z,99789.38
2022-10-13T02:50:29.627Z,99779.94
2022-10-13T02:52:56.084Z,99769.28
2022-10-13T02:55:22.555Z,99768.28
2022-10-13T02:57:49.123Z,99773.19
2022-10-13T03:00:16.630Z,99785.03
2022-10-13T03:02:43.234Z,99768.69
2022-10-13T03:05:10.348Z,99770.78
2022-10-13T03:07:36.896Z,99767.09
2022-10-13T03:10:04.980Z,99763.97
2022-10-13T03:12:31.498Z,99755.34
2022-10-13T03:14:57.952Z,99773.78
2022-10-13T03:17:24.420Z,99780.09
2022-10-13T03:19:50.975Z,99778.41
2022-10-13T03:22:17.769Z,99775.94
2022-10-13T03:24:46.686Z,99786.41
2022-10-13T03:27:13.261Z,99783.03
2022-10-13T03:29:39.803Z,99773.41
2022-10-13T03:32:06.383Z,99764.88
2022-10-13T03:34:32.900Z,99771.22
2022-10-13T03:36:59.413Z,99777.34
2022-10-13T03:39:26.042Z,99789.75
2022-10-13T03:41:52.672Z,99776.03
2022-10-13T03:44:19.858Z,99780.31
2022-10-13T03:46:46.503Z,99789.16
2022-10-13T03:49:13.069Z,99796.97
2022-10-13T03:51:39.565Z,99807.03
2022-10-13T03:54:06.154Z,99795.47
2022-10-13T03:56:35.939Z,99794.03
2022-10-13T03:59:04.813Z,99786.84
2022-10-13T04:01:32.628Z,99782.69
2022-10-13T04:04:02.193Z,99776.75
2022-10-13T04:06:29.033Z,99764.94
2022-10-13T04:08:55.545Z,99768.50
2022-10-13T04:11:22.170Z,99753.38
2022-10-13T04:13:48.890Z,99744.63
2022-10-13T04:16:18.448Z,99739.69
2022-10-13T04:18:45.950Z,99744.53
2022-10-13T04:21:14.747Z,99740.16
2022-10-13T04:23:41.280Z,99744.00
2022-10-13T04:26:14.172Z,99755.41
2022-10-13T04:28:40.710Z,99760.59
2022-10-13T04:31:07.333Z,99767.22
2022-10-13T04:33:33.863Z,99768.69
2022-10-13T04:36:04.562Z,99756.47
2022-10-13T04:38:31.149Z,99761.19
2022-10-13T04:40:57.682Z,99769.59
2022-10-13T04:43:24.236Z,99778.25
2022-10-13T04:45:50.732Z,99778.91
2022-10-13T04:48:17.191Z,99776.97
2022-10-13T04:50:43.899Z,99769.88
2022-10-13T04:53:13.229Z,99771.84
2022-10-13T04:55:43.211Z,99776.97
2022-10-13T04:58:09.615Z,99765.88
2022-10-13T05:00:36.187Z,99763.16
2022-10-13T05:03:02.769Z,99762.38
2022-10-13T05:05:29.276Z,99752.97
2022-10-13T05:07:55.831Z,99749.34
2022-10-13T05:10:22.409Z,99732.09
2022-10-13T05:12:48.970Z,99740.38
2022-10-13T05:15:15.733Z,99746.22
2022-10-13T05:17:42.389Z,99750.50
2022-10-13T05:20:10.080Z,99740.41
2022-10-13T05:22:36.648Z,99734.28
2022-10-13T05:25:03.610Z,99727.97
2022-10-13T05:27:30.177Z,99723.28
2022-10-13T05:29:56.735Z,99739.00
2022-10-13T05:32:23.363Z,99738.78
2022-10-13T05:34:49.890Z,99735.03
2022-10-13T05:37:22.204Z,99719.50
2022-10-13T05:39:49.118Z,99721.06
2022-10-13T05:42:15.713Z,99725.16
2022-10-13T05:44:44.229Z,99714.06
2022-10-13T05:47:10.754Z,99713.16
2022-10-13T05:49:39.870Z,99718.41
2022-10-13T05:52:09.514Z,99715.97
2022-10-13T05:54:44.197Z,99721.66
2022-10-13T05:57:14.620Z,99716.50
2022-10-13T05:59:46.007Z,99731.81
2022-10-13T06:02:15.190Z,99721.38
2022-10-13T06:04:45.940Z,99727.78
2022-10-13T06:07:13.055Z,99728.09
2022-10-13T06:09:40.547Z,99726.28
2022-10-13T06:12:08.582Z,99727.22
2022-10-13T06:14:38.156Z,99731.81
2022-10-13T06:17:05.150Z,99735.50
2022-10-13T06:19:31.662Z,99723.88
2022-10-13T06:22:03.261Z,99734.66
2022-10-13T06:24:30.514Z,99726.97
2022-10-13T06:26:57.067Z,99713.25
2022-10-13T06:29:23.697Z,99713.47
2022-10-13T06:31:50.199Z,99715.56
2022-10-13T06:34:16.666Z,99721.44
2022-10-13T06:36:43.231Z,99729.13
2022-10-13T06:39:10.435Z,99722.41
2022-10-13T06:41:36.887Z,99723.22
2022-10-13T06:44:03.706Z,99722.69
2022-10-13T06:46:30.339Z,99712.50
2022-10-13T06:48:56.832Z,99715.88
2022-10-13T06:51:23.349Z,99705.19
2022-10-13T06:53:50.095Z,99702.81
2022-10-13T06:56:16.587Z,99706.50
2022-10-13T06:58:43.083Z,99706.06
2022-10-13T07:01:13.093Z,99702.72
2022-10-13T07:03:41.875Z,99701.50
2022-10-13T07:06:08.487Z,99707.94
2022-10-13T07:08:35.415Z,99702.19
2022-10-13T07:11:16.327Z,99705.91
2022-10-13T07:13:46.399Z,99704.59
2022-10-13T07:16:14.936Z,99705.66
2022-10-13T07:18:41.575Z,99710.50
2022-10-13T07:21:08.172Z,99709.50
2022-10-13T07:23:34.782Z,99701.38
2022-10-13T07:26:01.875Z,99709.16
2022-10-13T07:28:29.189Z,99719.53
2022-10-13T07:30:55.750Z,99725.78
2022-10-13T07:33:22.422Z,99713.16
2022-10-13T07:35:52.014Z,99695.72
2022-10-13T07:38:18.743Z,99709.06
2022-10-13T07:40:45.353Z,99710.94
2022-10-13T07:43:11.944Z,99713.09
2022-10-13T07:45:38.453Z,99707.41
2022-10-13T07:48:05.302Z,99712.78
2022-10-13T07:50:31.900Z,99711.19
2022-10-13T07:52:58.979Z,99710.88
2022-10-13T07:55:25.558Z,99705.84
2022-10-13T07:57:52.382Z,99711.44
2022-10-13T08:00:19.123Z,99710.16
2022-10-13T08:02:49.698Z,99707.03
2022-10-13T08:05:17.630Z,99709.50
2022-10-13T08:07:44.449Z,99711.50
2022-10-13T08:10:11.439Z,99716.34
2022-10-13T08:12:38.317Z,99698.97
2022-10-13T08:15:06.502Z,99704.94
2022-10-13T08:17:33.562Z,99689.91
2022-10-13T08:20:00.146Z,99695.78
2022-10-13T08:22:28.466Z,99701.44
2022-10-13T08:24:55.981Z,99694.94
2022-10-13T08:27:26.635Z,99691.16
2022-10-13T08:30:06.090Z,99683.59
2022-10-13T08:32:35.904Z,99682.34
2022-10-13T08:35:02.509Z,99684.34
2022-10-13T08:37:29.289Z,99688.34
2022-10-13T08:39:56.951Z,99689.06
2022-10-13T08:42:23.495Z,99681.84
2022-10-13T08:45:28.384Z,99676.78
2022-10-13T08:47:39.713Z,99690.69
2022-10-13T08:50:24.075Z,99692.28
2022-10-13T08:52:57.553Z,99692.50
2022-10-13T08:55:44.524Z,99685.19
2022-10-13T08:58:31.562Z,99670.91
2022-10-13T09:01:06.983Z,99681.91
2022-10-13T09:03:57.601Z,99685.34
2022-10-13T09:06:31.617Z,99692.97
2022-10-13T09:09:00.901Z,99701.72
2022-10-13T09:11:30.748Z,99690.81
2022-10-13T09:14:00.144Z,99705.94
2022-10-13T09:16:34.506Z,99693.81
2022-10-13T09:19:25.921Z,99692.78
2022-10-13T09:21:57.593Z,99690.41
2022-10-13T09:24:26.135Z,99688.91
2022-10-13T09:27:21.981Z,99695.97
2022-10-13T09:29:48.521Z,99698.34
2022-10-13T09:32:21.886Z,99707.69
2022-10-13T09:34:49.225Z,99714.06
2022-10-13T09:37:22.321Z,99724.38
2022-10-13T09:40:16.758Z,99730.34
2022-10-13T09:42:50.728Z,99720.06
2022-10-13T09:45:19.832Z,99712.31
2022-10-13T09:47:50.871Z,99709.94
2022-10-13T09:50:19.653Z,99707.97
2022-10-13T09:52:47.739Z,99714.41
2022-10-13T09:55:33.192Z,99711.31
2022-10-13T09:58:27.432Z,99698.22
2022-10-13T10:00:54.728Z,99690.34
2022-10-13T10:03:32.593Z,99688.47
2022-10-13T10:06:07.369Z,99686.25
2022-10-13T10:09:02.691Z,99675.25
2022-10-13T10:11:31.056Z,99681.69
2022-10-13T10:13:57.899Z,99673.13
2022-10-13T10:16:41.017Z,99673.63
2022-10-13T10:19:21.966Z,99656.97
2022-10-13T10:22:19.753Z,99642.75
2022-10-13T10:25:12.930Z,99642.97
2022-10-13T10:27:45.655Z,99631.34
2022-10-13T10:30:22.207Z,99623.66
2022-10-13T10:33:01.352Z,99642.19
2022-10-13T10:35:44.863Z,99643.72
2022-10-13T10:38:16.981Z,99668.03
2022-10-13T10:40:57.040Z,99664.00
2022-10-13T10:43:46.055Z,99650.53
2022-10-13T10:46:25.843Z,99671.00
2022-10-13T10:48:56.476Z,99657.06
2022-10-13T10:51:33.769Z,99651.91
2022-10-13T10:54:21.722Z,99658.38
2022-10-13T10:56:54.419Z,99662.47
2022-10-13T10:59:32.189Z,99645.84
2022-10-13T11:02:13.091Z,99634.09
2022-10-13T11:04:46.394Z,99644.38
2022-10-13T11:07:22.151Z,99637.19
2022-10-13T11:09:48.544Z,99643.09
2022-10-13T11:12:23.013Z,99628.94
2022-10-13T11:15:14.272Z,99629.78
2022-10-13T11:17:41.929Z,99626.41
2022-10-13T11:20:20.561Z,99628.78
2022-10-13T11:23:00.358Z,99617.47
2022-10-13T11:25:47.109Z,99614.22
2022-10-13T11:28:22.770Z,99609.28
2022-10-13T11:31:12.423Z,99606.94
2022-10-13T11:33:38.800Z,99598.53
2022-10-13T11:36:56.759Z,99591.03
2022-10-13T11:39:23.164Z,99589.66
2022-10-13T11:42:03.338Z,99589.91
2022-10-13T11:44:51.813Z,99587.41
2022-10-13T11:47:40.420Z,99591.34
2022-10-13T11:50:46.862Z,99579.13
2022-10-13T11:53:21.884Z,99563.97
2022-10-13T11:55:53.689Z,99564.59
2022-10-13T11:58:20.210Z,99561.94
2022-10-13T12:00:59.898Z,99558.41
2022-10-13T12:03:26.388Z,99551.97
2022-10-13T12:05:56.556Z,99547.38
2022-10-13T12:08:25.894Z,99546.97
2022-10-13T12:10:57.382Z,99553.50
2022-10-13T12:13:28.776Z,99543.75
2022-10-13T12:16:16.694Z,99541.75
2022-10-13T12:18:43.537Z,99542.28
2022-10-13T12:21:13.514Z,99535.03
2022-10-13T12:23:45.601Z,99534.28
2022-10-13T12:26:21.085Z,99534.72
2022-10-13T12:29:04.522Z,99528.72
2022-10-13T12:31:43.962Z,99519.66
2022-10-13T12:34:29.055Z,99526.00
2022-10-13T12:37:35.384Z,99529.63
2022-10-13T12:40:07.310Z,99516.84
2022-10-13T12:42:36.238Z,99523.94
2022-10-13T12:45:03.346Z,99524.75
2022-10-13T12:47:49.607Z,99527.66
2022-10-13T12:50:25.369Z,99533.25
2022-10-13T12:53:14.850Z,99534.47
2022-10-13T12:56:01.236Z,99536.91
2022-10-13T12:58:36.626Z,99537.63
2022-10-13T13:01:20.026Z,99534.47
2022-10-13T13:03:54.553Z,99523.97
2022-10-13T13:06:24.283Z,99523.44
2022-10-13T13:09:25.451Z,99531.69
2022-10-13T13:12:10.164Z,99531.69
2022-10-13T13:14:41.790Z,99528.38
2022-10-13T13:17:45.235Z,99524.09
2022-10-13T13:20:31.496Z,99523.63
2022-10-13T13:22:58.640Z,99531.59
2022-10-13T13:25:25.325Z,99528.19
2022-10-13T13:27:52.199Z,99528.28
2022-10-13T13:30:26.078Z,99525.91
2022-10-13T13:32:52.641Z,99522.81
2022-10-13T13:35:19.188Z,99520.59
2022-10-13T13:37:49.758Z,99527.63
2022-10-13T13:40:30.498Z,99528.28
2022-10-13T13:42:56.968Z,99523.22
2022-10-13T13:45:24.906Z,99517.94
2022-10-13T13:47:57.979Z,99519.81
2022-10-13T13:50:37.154Z,99517.53
2022-10-13T13:53:04.673Z,99516.81
2022-10-13T13:55:31.136Z,99515.16
2022-10-13T13:57:58.219Z,99514.06
2022-10-13T14:00:24.905Z,99510.63
2022-10-13T14:02:51.559Z,99512.22
2022-10-13T14:05:18.010Z,99504.31
2022-10-13T14:07:44.511Z,99497.34
2022-10-13T14:10:11.263Z,99501.66
2022-10-13T14:12:37.838Z,99501.00
2022-10-13T14:15:04.765Z,99507.03
2022-10-13T14:17:47.683Z,99504.66
2022-10-13T14:20:14.323Z,99490.03
2022-10-13T14:22:40.950Z,99485.75
2022-10-13T14:25:08.017Z,99493.13
2022-10-13T14:27:35.080Z,99491.66
2022-10-13T14:30:03.870Z,99498.69
2022-10-13T14:32:30.361Z,99493.53
2022-10-13T14:34:56.873Z,99488.41
2022-10-13T14:37:25.858Z,99488.78
2022-10-13T14:39:55.622Z,99493.22
2022-10-13T14:42:22.164Z,99488.00
2022-10-13T14:44:48.794Z,99491.44
2022-10-13T14:47:15.380Z,99484.41
2022-10-13T14:49:41.947Z,99483.41
2022-10-13T14:52:08.801Z,99485.06
2022-10-13T14:54:44.692Z,99481.59
2022-10-13T14:57:16.358Z,99490.31
2022-10-13T14:59:43.513Z,99478.34
2022-10-13T15:02:11.491Z,99479.22
2022-10-13T15:04:41.034Z,99476.56
2022-10-13T15:07:07.651Z,99476.38
2022-10-13T15:09:52.366Z,99476.38
2022-10-13T15:12:23.184Z,99471.03
2022-10-13T15:14:50.140Z,99470.25
2022-10-13T15:17:16.820Z,99476.41
2022-10-13T15:19:46.601Z,99473.06
2022-10-13T15:22:13.354Z,99462.63
2022-10-13T15:24:43.394Z,99466.81
2022-10-13T15:27:09.985Z,99466.94
2022-10-13T15:29:36.655Z,99455.97
2022-10-13T15:32:18.555Z,99461.75
2022-10-13T15:34:45.638Z,99459.72
2022-10-13T15:37:12.623Z,99466.47
2022-10-13T15:39:39.131Z,99462.88
2022-10-13T15:42:08.113Z,99461.28
2022-10-13T15:44:57.343Z,99458.47
2022-10-13T15:47:21.264Z,99461.81
2022-10-13T15:49:47.901Z,99458.16
2022-10-13T15:52:17.620Z,99459.75
2022-10-13T15:54:44.321Z,99457.09
2022-10-13T15:57:14.611Z,99454.41
2022-10-13T15:59:41.252Z,99446.75
2022-10-13T16:02:08.983Z,99442.16
2022-10-13T16:04:38.454Z,99441.41
2022-10-13T16:07:05.209Z,99449.16
2022-10-13T16:09:31.809Z,99449.53
2022-10-13T16:11:58.367Z,99443.59
2022-10-13T16:14:24.891Z,99450.56
2022-10-13T16:16:51.472Z,99446.88
2022-10-13T16:19:18.073Z,99445.75
2022-10-13T16:21:47.783Z,99447.28
2022-10-13T16:24:14.945Z,99447.47
2022-10-13T16:26:55.065Z,99441.28
2022-10-13T16:29:24.697Z,99453.91
2022-10-13T16:31:54.294Z,99453.13
2022-10-13T16:34:24.988Z,99442.69
2022-10-13T16:36:54.530Z,99455.03
2022-10-13T16:39:29.742Z,99455.97
2022-10-13T16:41:56.381Z,99450.75
2022-10-13T16:44:25.959Z,99454.63
2022-10-13T16:46:53.886Z,99453.91
2022-10-13T16:49:20.315Z,99457.22
2022-10-13T16:51:46.846Z,99458.00
2022-10-13T16:54:13.410Z,99458.75
2022-10-13T16:56:40.200Z,99459.56
2022-10-13T16:59:07.000Z,99457.22
2022-10-13T17:01:34.868Z,99460.72
2022-10-13T17:04:01.806Z,99467.88
2022-10-13T17:06:29.112Z,99475.38
2022-10-13T17:08:59.897Z,99464.78
2022-10-13T17:11:29.076Z,99458.28
2022-10-13T17:13:56.880Z,99463.56
2022-10-13T17:16:27.354Z,99472.00
2022-10-13T17:18:57.324Z,99471.03
2022-10-13T17:21:24.112Z,99470.91
2022-10-13T17:23:50.769Z,99475.19
2022-10-13T17:26:25.313Z,99475.19
2022-10-13T17:28:52.061Z,99476.28
2022-10-13T17:31:22.909Z,99473.06
2022-10-13T17:33:50.769Z,99475.88
2022-10-13T17:36:24.834Z,99469.88
2022-10-13T17:38:55.972Z,99477.88
2022-10-13T17:41:27.168Z,99475.88
2022-10-13T17:43:53.753Z,99469.22
2022-10-13T17:46:36.964Z,99473.53
2022-10-13T17:49:15.050Z,99477.06
2022-10-13T17:51:54.380Z,99472.72
2022-10-13T17:54:21.113Z,99478.34
2022-10-13T17:56:50.569Z,99480.72
2022-10-13T17:59:20.709Z,99478.84
2022-10-13T18:01:49.966Z,99485.31
2022-10-13T18:04:19.144Z,99482.53
2022-10-13T18:06:46.211Z,99487.06
2022-10-13T18:09:22.717Z,99484.19
2022-10-13T18:11:51.001Z,99491.88
2022-10-13T18:14:19.600Z,99493.66
2022-10-13T18:16:53.195Z,99491.66
2022-10-13T18:19:22.629Z,99496.03
2022-10-13T18:21:51.363Z,99489.16
2022-10-13T18:24:18.088Z,99489.25
2022-10-13T18:26:51.723Z,99489.66
2022-10-13T18:29:18.349Z,99486.03
2022-10-13T18:31:44.824Z,99490.34
2022-10-13T18:34:17.238Z,99495.66
2022-10-13T18:36:47.937Z,99486.56
2022-10-13T18:39:26.634Z,99487.31
2022-10-13T18:41:54.318Z,99493.41
2022-10-13T18:44:21.399Z,99493.09
2022-10-13T18:46:54.729Z,99486.75
2022-10-13T18:49:23.874Z,99495.19
2022-10-13T18:51:51.684Z,99497.88
2022-10-13T18:54:18.219Z,99494.72
2022-10-13T18:56:44.804Z,99494.94
2022-10-13T18:59:11.441Z,99503.75
2022-10-13T19:01:38.780Z,99498.47
2022-10-13T19:04:05.886Z,99497.63
2022-10-13T19:06:32.889Z,99496.41
2022-10-13T19:09:04.829Z,99505.25
2022-10-13T19:11:32.957Z,99501.94
2022-10-13T19:14:00.301Z,99502.75
2022-10-13T19:16:29.510Z,99507.94
2022-10-13T19:18:56.536Z,99509.72
2022-10-13T19:21:24.468Z,99505.38
2022-10-13T19:23:51.058Z,99503.63
2022-10-13T19:26:23.909Z,99498.09
2022-10-13T19:28:55.904Z,99504.09
2022-10-13T19:31:28.815Z,99496.94
2022-10-13T19:33:55.800Z,99492.81
2022-10-13T19:36:31.780Z,99486.25
2022-10-13T19:38:59.796Z,99494.59
2022-10-13T19:41:28.898Z,99490.94
2022-10-13T19:43:55.695Z,99489.44
2022-10-13T19:46:23.847Z,99484.75
2022-10-13T19:48:50.554Z,99482.38
2022-10-13T19:51:17.503Z,99484.94
2022-10-13T19:53:44.258Z,99479.66
2022-10-13T19:56:22.570Z,99483.66
2022-10-13T19:58:49.127Z,99474.91
2022-10-13T20:01:15.687Z,99480.28
2022-10-13T20:03:42.306Z,99483.66
2022-10-13T20:06:09.329Z,99485.44
2022-10-13T20:08:35.809Z,99486.69
2022-10-13T20:11:10.567Z,99493.53
2022-10-13T20:13:37.365Z,99490.16
2022-10-13T20:16:12.761Z,99491.84
2022-10-13T20:18:39.478Z,99491.00
2022-10-13T20:21:08.091Z,99501.28
2022-10-13T20:23:35.321Z,99491.53
2022-10-13T20:26:06.890Z,99501.97
2022-10-13T20:28:33.813Z,99503.63
2022-10-13T20:31:04.440Z,99498.63
2022-10-13T20:33:32.524Z,99496.75
2022-10-13T20:36:01.051Z,99499.16
2022-10-13T20:38:30.142Z,99498.19
2022-10-13T20:41:14.284Z,99500.84
2022-10-13T20:43:40.865Z,99503.00
2022-10-13T20:46:08.314Z,99500.97
2022-10-13T20:48:58.146Z,99504.38
2022-10-13T20:51:31.363Z,99511.94
2022-10-13T20:53:57.877Z,99508.91
2022-10-13T20:56:26.140Z,99508.53
2022-10-13T20:58:53.183Z,99511.19
2022-10-13T21:01:21.390Z,99512.09
2022-10-13T21:03:52.410Z,99512.09
2022-10-13T21:06:18.953Z,99510.25
2022-10-13T21:08:46.636Z,99505.13
2022-10-13T21:11:14.992Z,99499.09
2022-10-13T21:13:44.111Z,99504.94
2022-10-13T21:16:13.440Z,99511.06
2022-10-13T21:18:40.221Z,99502.34
2022-10-13T21:21:09.001Z,99509.16
2022-10-13T21:23:36.417Z,99513.50
2022-10-13T21:26:08.480Z,99509.50
2022-10-13T21:28:37.619Z,99511.25
2022-10-13T21:31:09.836Z,99503.88
2022-10-13T21:33:37.349Z,99512.38
2022-10-13T21:36:18.792Z,99523.75
2022-10-13T21:38:46.499Z,99517.81
2022-10-13T21:41:14.035Z,99515.00
2022-10-13T21:43:40.978Z,99515.19
2022-10-13T21:46:09.125Z,99513.31
2022-10-13T21:48:36.198Z,99507.75
2022-10-13T21:51:24.965Z,99508.16
2022-10-13T21:53:53.890Z,99493.69
2022-10-13T21:56:21.190Z,99508.91
2022-10-13T21:58:49.011Z,99499.50
2022-10-13T22:01:17.004Z,99498.72
2022-10-13T22:03:43.718Z,99497.38
2022-10-13T22:06:19.032Z,99494.50
2022-10-13T22:08:47.698Z,99498.03
2022-10-13T22:11:15.150Z,99489.34
2022-10-13T22:13:41.691Z,99489.44
2022-10-13T22:16:14.575Z,99484.72
2022-10-13T22:18:41.978Z,99489.34
2022-10-13T22:21:11.377Z,99478.91
2022-10-13T22:23:37.890Z,99483.31
2022-10-13T22:26:04.487Z,99485.06
2022-10-13T22:28:36.827Z,99480.69
2022-10-13T22:31:13.293Z,99481.09
2022-10-13T22:33:41.255Z,99477.97
2022-10-13T22:36:14.497Z,99478.91
2022-10-13T22:38:41.267Z,99479.88
2022-10-13T22:41:08.624Z,99468.03
2022-10-13T22:43:38.025Z,99472.06
2022-10-13T22:46:04.833Z,99470.59
2022-10-13T22:48:35.819Z,99466.34
2022-10-13T22:51:07.759Z,99460.38
2022-10-13T22:53:34.820Z,99461.09
2022-10-13T22:56:05.269Z,99454.34
2022-10-13T22:58:31.814Z,99462.19
2022-10-13T23:01:04.910Z,99462.06
2022-10-13T23:03:31.406Z,99458.72
2022-10-13T23:05:57.932Z,99456.22
2022-10-13T23:08:24.505Z,99450.94
2022-10-13T23:10:51.120Z,99451.88
2022-10-13T23:13:17.588Z,99456.22
2022-10-13T23:15:44.212Z,99457.09
2022-10-13T23:18:10.769Z,99452.78
2022-10-13T23:20:41.177Z,99450.94
2022-10-13T23:23:07.728Z,99454.34
2022-10-13T23:25:35.103Z,99447.59
2022-10-13T23:28:01.959Z,99452.56
2022-10-13T23:30:28.467Z,99445.91
2022-10-13T23:32:55.111Z,99453.69
2022-10-13T23:35:21.677Z,99455.34
2022-10-13T23:37:48.252Z,99449.28
2022-10-13T23:40:14.919Z,99450.78
2022-10-13T23:42:41.443Z,99444.72
2022-10-13T23:45:08.521Z,99444.91
2022-10-13T23:47:35.043Z,99439.09
2022-10-13T23:50:01.600Z,99437.47
2022-10-13T23:52:28.142Z,99439.31
2022-10-13T23:54:54.731Z,99431.16
2022-10-13T23:57:21.554Z,99433.94
2022-10-13T23:59:48.256Z,99433.06
